createdAt,value
2022-11-24T00:02:09.766Z,98871.16
2022-11-24T00:04:38.004Z,98872.88
2022-11-24T00:07:06.067Z,98863.47
2022-11-24T00:09:34.187Z,98876.28
2022-11-24T00:12:02.477Z,98866.91
2022-11-24T00:14:32.372Z,98883.97
2022-11-24T00:17:00.709Z,98882.28
2022-11-24T00:19:28.820Z,98895.06
2022-11-24T00:21:56.885Z,98898.47
2022-11-24T00:24:24.952Z,98909.56
2022-11-24T00:26:53.277Z,98905.31
2022-11-24T00:29:21.384Z,98906.16
2022-11-24T00:31:50.794Z,98902.72
2022-11-24T00:34:18.899Z,98917.25
2022-11-24T00:36:47.132Z,98913.84
2022-11-24T00:39:17.341Z,98927.56
2022-11-24T00:41:45.480Z,98914.75
2022-11-24T00:44:13.546Z,98917.31
2022-11-24T00:46:41.782Z,98919.00
2022-11-24T00:49:11.919Z,98929.28
2022-11-24T00:51:39.958Z,98919.03
2022-11-24T00:54:07.990Z,98930.13
2022-11-24T00:56:36.002Z,98931.78
2022-11-24T00:59:04.083Z,98945.47
2022-11-24T01:01:32.355Z,98958.34
2022-11-24T01:04:02.624Z,98967.75
2022-11-24T01:06:32.718Z,98975.47
2022-11-24T01:09:00.933Z,98965.22
2022-11-24T01:11:50.474Z,98967.78
2022-11-24T01:14:18.773Z,98980.59
2022-11-24T01:16:46.803Z,98992.56
2022-11-24T01:19:15.254Z,98997.66
2022-11-24T01:21:46.014Z,99001.94
2022-11-24T01:24:14.507Z,99027.56
2022-11-24T01:26:42.997Z,99025.00
2022-11-24T01:29:13.031Z,99005.34
2022-11-24T01:31:41.271Z,99025.84
2022-11-24T01:34:09.372Z,99032.66
2022-11-24T01:36:37.417Z,99028.38
2022-11-24T01:39:07.642Z,99029.22
2022-11-24T01:41:35.824Z,99044.59
2022-11-24T01:44:22.376Z,99032.59
2022-11-24T01:46:56.400Z,99054.75
2022-11-24T01:49:29.010Z,99047.09
2022-11-24T01:52:02.400Z,99058.19
2022-11-24T01:54:34.902Z,99059.91
2022-11-24T01:57:09.557Z,99071.00
2022-11-24T01:59:38.501Z,99068.44
2022-11-24T02:02:07.144Z,99072.69
2022-11-24T02:04:36.380Z,99076.09
2022-11-24T02:07:06.974Z,99076.91
2022-11-24T02:09:43.131Z,99079.47
2022-11-24T02:12:11.270Z,99078.63
2022-11-24T02:14:41.618Z,99075.16
2022-11-24T02:17:09.894Z,99076.81
2022-11-24T02:19:49.036Z,99082.81
2022-11-24T02:22:23.688Z,99094.75
2022-11-24T02:24:57.450Z,99098.13
2022-11-24T02:27:26.986Z,99106.63
2022-11-24T02:29:55.070Z,99101.44
2022-11-24T02:32:24.496Z,99106.56
2022-11-24T02:35:02.016Z,99118.47
2022-11-24T02:37:30.297Z,99107.41
2022-11-24T02:39:58.365Z,99113.41
2022-11-24T02:42:30.034Z,99115.06
2022-11-24T02:45:01.269Z,99118.53
2022-11-24T02:47:29.785Z,99123.69
2022-11-24T02:49:57.856Z,99135.59
2022-11-24T02:52:25.905Z,99130.50
2022-11-24T02:54:53.928Z,99126.22
2022-11-24T02:57:23.811Z,99127.03
2022-11-24T02:59:53.260Z,99122.81
2022-11-24T03:02:21.490Z,99121.94
2022-11-24T03:04:49.727Z,99127.97
2022-11-24T03:07:18.269Z,99126.25
2022-11-24T03:09:46.581Z,99133.88
2022-11-24T03:12:14.606Z,99132.16
2022-11-24T03:14:42.689Z,99143.19
2022-11-24T03:17:12.241Z,99133.84
2022-11-24T03:19:40.294Z,99144.06
2022-11-24T03:22:08.278Z,99142.34
2022-11-24T03:24:36.510Z,99149.16
2022-11-24T03:27:04.921Z,99164.50
2022-11-24T03:29:33.031Z,99164.44
2022-11-24T03:32:01.609Z,99167.84
2022-11-24T03:34:31.266Z,99169.59
2022-11-24T03:36:59.611Z,99177.34
2022-11-24T03:39:27.588Z,99176.56
2022-11-24T03:41:55.671Z,99173.16
2022-11-24T03:44:23.706Z,99173.16
2022-11-24T03:46:52.099Z,99163.78
2022-11-24T03:49:20.161Z,99160.31
2022-11-24T03:51:49.544Z,99166.28
2022-11-24T03:54:17.565Z,99185.94
2022-11-24T03:56:45.682Z,99169.81
2022-11-24T03:59:13.731Z,99173.28
2022-11-24T04:01:41.786Z,99178.47
2022-11-24T04:04:11.823Z,99170.88
2022-11-24T04:06:40.172Z,99173.53
2022-11-24T04:09:10.979Z,99175.34
2022-11-24T04:11:56.309Z,99166.88
2022-11-24T04:14:24.442Z,99177.13
2022-11-24T04:16:52.498Z,99158.28
2022-11-24T04:19:20.767Z,99146.31
2022-11-24T04:21:48.843Z,99129.22
2022-11-24T04:24:18.272Z,99134.41
2022-11-24T04:26:46.332Z,99134.50
2022-11-24T04:29:14.544Z,99129.47
2022-11-24T04:31:42.866Z,99121.78
2022-11-24T04:34:12.358Z,99114.09
2022-11-24T04:36:41.216Z,99116.75
2022-11-24T04:39:19.592Z,99103.16
2022-11-24T04:41:54.052Z,99105.78
2022-11-24T04:44:22.268Z,99105.84
2022-11-24T04:46:50.483Z,99093.91
2022-11-24T04:49:18.778Z,99102.47
2022-11-24T04:51:47.123Z,99097.38
2022-11-24T04:54:16.085Z,99093.94
2022-11-24T04:56:44.792Z,99082.81
2022-11-24T04:59:16.088Z,99082.81
2022-11-24T05:01:44.888Z,99097.34
2022-11-24T05:04:15.200Z,99084.56
2022-11-24T05:06:43.427Z,99088.00
2022-11-24T05:09:16.422Z,99094.00
2022-11-24T05:11:45.031Z,99080.31
2022-11-24T05:14:13.068Z,99075.19
2022-11-24T05:16:42.722Z,99075.19
2022-11-24T05:19:10.814Z,99072.66
2022-11-24T05:21:39.174Z,99066.66
2022-11-24T05:24:07.779Z,99062.34
2022-11-24T05:26:36.239Z,99068.31
2022-11-24T05:29:04.331Z,99068.28
2022-11-24T05:31:32.469Z,99065.72
2022-11-24T05:34:01.974Z,99072.50
2022-11-24T05:37:01.774Z,99072.50
2022-11-24T05:39:29.959Z,99067.31
2022-11-24T05:41:57.982Z,99068.16
2022-11-24T05:44:26.030Z,99067.31
2022-11-24T05:46:54.175Z,99053.63
2022-11-24T05:49:23.579Z,99050.19
2022-11-24T05:51:51.577Z,99049.31
2022-11-24T05:54:19.646Z,99044.19
2022-11-24T05:56:47.766Z,99031.38
2022-11-24T05:59:15.831Z,99011.75
2022-11-24T06:01:43.910Z,99007.50
2022-11-24T06:04:12.029Z,99025.50
2022-11-24T06:06:41.741Z,99015.25
2022-11-24T06:09:09.962Z,99011.84
2022-11-24T06:11:37.985Z,99017.00
2022-11-24T06:14:10.881Z,99006.78
2022-11-24T06:16:39.463Z,98999.09
2022-11-24T06:19:07.804Z,98990.53
2022-11-24T06:21:35.884Z,98987.97
2022-11-24T06:24:06.030Z,98985.41
2022-11-24T06:26:34.254Z,98970.00
2022-11-24T06:29:02.508Z,98973.47
2022-11-24T06:31:30.901Z,98973.47
2022-11-24T06:33:59.260Z,98967.47
2022-11-24T06:36:27.663Z,98964.06
2022-11-24T06:38:55.802Z,98952.06
2022-11-24T06:41:25.218Z,98948.63
2022-11-24T06:43:53.256Z,98949.47
2022-11-24T06:46:22.569Z,98946.03
2022-11-24T06:48:53.295Z,98955.47
2022-11-24T06:51:21.453Z,98946.03
2022-11-24T06:53:49.572Z,98951.16
2022-11-24T06:56:20.931Z,98948.56
2022-11-24T06:58:51.928Z,98927.97
2022-11-24T07:01:21.474Z,98911.69
2022-11-24T07:03:49.933Z,98896.28
2022-11-24T07:06:18.732Z,98872.28
2022-11-24T07:08:48.285Z,98872.28
2022-11-24T07:11:18.844Z,98865.44
2022-11-24T07:13:48.434Z,98880.88
2022-11-24T07:16:20.295Z,98874.00
2022-11-24T07:18:49.864Z,98865.44
2022-11-24T07:21:18.211Z,98859.44
2022-11-24T07:23:48.910Z,98854.28
2022-11-24T07:26:17.540Z,98845.69
2022-11-24T07:28:45.704Z,98841.38
2022-11-24T07:31:15.575Z,98825.91
2022-11-24T07:33:45.395Z,98821.56
2022-11-24T07:36:13.450Z,98818.09
2022-11-24T07:38:41.487Z,98805.22
2022-11-24T07:41:12.066Z,98802.59
2022-11-24T07:43:41.361Z,98805.13
2022-11-24T07:46:12.979Z,98787.91
2022-11-24T07:48:41.647Z,98790.41
2022-11-24T07:51:10.991Z,98785.19
2022-11-24T07:53:39.179Z,98771.44
2022-11-24T07:56:08.262Z,98765.38
2022-11-24T07:58:37.724Z,98766.19
2022-11-24T08:01:14.229Z,98753.28
2022-11-24T08:03:42.623Z,98743.81
2022-11-24T08:06:32.575Z,98734.34
2022-11-24T08:09:00.710Z,98736.88
2022-11-24T08:11:31.499Z,98723.13
2022-11-24T08:14:00.093Z,98723.97
2022-11-24T08:16:28.364Z,98713.72
2022-11-24T08:18:57.320Z,98709.41
2022-11-24T08:21:27.272Z,98699.09
2022-11-24T08:23:56.854Z,98692.16
2022-11-24T08:26:25.438Z,98683.53
2022-11-24T08:28:56.574Z,98678.34
2022-11-24T08:31:27.484Z,98674.88
2022-11-24T08:33:56.790Z,98674.84
2022-11-24T08:36:27.678Z,98667.09
2022-11-24T08:38:57.502Z,98666.22
2022-11-24T08:41:27.242Z,98657.59
2022-11-24T08:43:55.739Z,98650.72
2022-11-24T08:46:24.427Z,98642.94
2022-11-24T08:48:54.251Z,98635.19
2022-11-24T08:51:24.189Z,98654.91
2022-11-24T08:53:58.500Z,98641.22
2022-11-24T08:56:27.396Z,98646.47
2022-11-24T08:58:55.927Z,98634.47
2022-11-24T09:01:25.124Z,98652.56
2022-11-24T09:03:53.499Z,98664.66
2022-11-24T09:06:24.020Z,98676.78
2022-11-24T09:09:01.510Z,98668.38
2022-11-24T09:11:38.238Z,98664.44
2022-11-24T09:14:13.589Z,98651.78
2022-11-24T09:19:38.219Z,98637.53
2022-11-24T09:22:13.477Z,98629.91
2022-11-24T09:24:41.731Z,98640.25
2022-11-24T09:27:12.942Z,98602.69
2022-11-24T09:29:47.885Z,98619.00
2022-11-24T09:32:23.851Z,98623.31
2022-11-24T09:34:51.999Z,98596.78
2022-11-24T09:37:25.031Z,98579.69
2022-11-24T09:40:00.410Z,98567.75
2022-11-24T09:42:58.064Z,98579.72
2022-11-24T09:46:04.915Z,98566.06
2022-11-24T09:48:48.974Z,98554.97
2022-11-24T09:51:26.177Z,98537.91
2022-11-24T09:53:58.686Z,98526.78
2022-11-24T09:56:31.806Z,98525.91
2022-11-24T09:59:05.163Z,98553.28
2022-11-24T10:01:39.772Z,98552.38
2022-11-24T10:04:17.874Z,98544.66
2022-11-24T10:06:51.784Z,98561.66
2022-11-24T10:09:32.788Z,98576.16
2022-11-24T10:12:17.519Z,98582.09
2022-11-24T10:15:38.042Z,98594.84
2022-11-24T10:18:40.081Z,98598.22
2022-11-24T10:21:34.219Z,98607.59
2022-11-24T10:24:55.496Z,98603.31
2022-11-24T10:27:46.644Z,98600.69
2022-11-24T10:30:24.024Z,98614.38
2022-11-24T10:33:23.187Z,98622.91
2022-11-24T10:36:28.581Z,98628.84
2022-11-24T10:39:07.404Z,98621.16
2022-11-24T10:41:44.379Z,98630.50
2022-11-24T10:44:19.314Z,98638.19
2022-11-24T10:46:55.553Z,98642.50
2022-11-24T10:49:48.187Z,98629.59
2022-11-24T10:52:46.710Z,98630.38
2022-11-24T10:55:21.710Z,98629.53
2022-11-24T10:57:55.070Z,98626.97
2022-11-24T11:00:39.679Z,98624.38
2022-11-24T11:03:23.376Z,98636.31
2022-11-24T11:05:55.223Z,98632.84
2022-11-24T11:08:32.796Z,98627.69
2022-11-24T11:11:34.765Z,98648.28
2022-11-24T11:14:05.345Z,98650.00
2022-11-24T11:16:42.223Z,98650.03
2022-11-24T11:19:49.725Z,98653.47
2022-11-24T11:22:45.408Z,98655.16
2022-11-24T11:25:36.229Z,98658.66
2022-11-24T11:28:32.309Z,98668.03
2022-11-24T11:31:24.592Z,98668.88
2022-11-24T11:34:06.188Z,98668.88
2022-11-24T11:36:43.006Z,98671.47
2022-11-24T11:39:26.069Z,98670.59
2022-11-24T11:45:33.059Z,98690.31
2022-11-24T11:48:15.191Z,98706.63
2022-11-24T11:51:21.687Z,98710.88
2022-11-24T11:53:55.997Z,98702.28
2022-11-24T11:56:27.303Z,98708.25
2022-11-24T11:59:31.967Z,98703.94
2022-11-24T12:02:55.852Z,98700.47
2022-11-24T12:05:35.056Z,98701.31
2022-11-24T12:08:21.589Z,98703.84
2022-11-24T12:11:07.577Z,98696.94
2022-11-24T12:13:51.577Z,98707.97
2022-11-24T12:16:32.291Z,98704.53
2022-11-24T12:19:18.838Z,98695.88
2022-11-24T12:21:56.608Z,98708.69
2022-11-24T12:24:38.024Z,98704.34
2022-11-24T12:27:23.102Z,98701.69
2022-11-24T12:30:10.921Z,98710.25
2022-11-24T12:33:08.481Z,98711.88
2022-11-24T12:35:39.913Z,98708.41
2022-11-24T12:38:31.698Z,98718.63
2022-11-24T12:41:41.008Z,98714.25
2022-11-24T12:44:14.163Z,98705.63
2022-11-24T12:46:54.253Z,98705.56
2022-11-24T12:49:38.430Z,98702.94
2022-11-24T12:52:18.532Z,98693.47
2022-11-24T12:54:53.292Z,98710.50
2022-11-24T12:57:30.376Z,98701.84
2022-11-24T13:00:07.576Z,98704.34
2022-11-24T13:02:55.067Z,98712.03
2022-11-24T13:05:32.038Z,98704.25
2022-11-24T13:08:02.557Z,98709.34
2022-11-24T13:13:29.041Z,98708.19
2022-11-24T13:19:16.346Z,98703.66
2022-11-24T13:21:52.022Z,98710.41
2022-11-24T13:24:25.989Z,98714.66
2022-11-24T13:26:56.028Z,98709.44
2022-11-24T13:29:35.687Z,98723.19
2022-11-24T13:32:52.356Z,98721.44
2022-11-24T13:35:20.465Z,98718.78
2022-11-24T13:37:52.985Z,98721.34
2022-11-24T13:40:59.856Z,98721.34
2022-11-24T13:43:32.203Z,98726.50
2022-11-24T13:46:03.867Z,98723.91
2022-11-24T13:48:54.329Z,98722.94
2022-11-24T13:51:26.323Z,98730.59
2022-11-24T13:54:00.976Z,98728.81
2022-11-24T13:56:31.838Z,98713.28
2022-11-24T13:59:02.487Z,98730.56
2022-11-24T14:01:32.629Z,98726.50
2022-11-24T14:07:05.609Z,98715.66
2022-11-24T14:09:43.813Z,98709.72
2022-11-24T14:12:16.813Z,98705.50
2022-11-24T14:14:47.624Z,98710.72
2022-11-24T14:17:23.094Z,98720.00
2022-11-24T14:19:53.662Z,98720.59
2022-11-24T14:22:27.027Z,98708.31
2022-11-24T14:24:58.785Z,98710.72
2022-11-24T14:27:31.547Z,98702.75
2022-11-24T14:30:06.700Z,98697.66
2022-11-24T14:32:34.911Z,98711.50
2022-11-24T14:35:03.599Z,98716.75
2022-11-24T14:37:32.061Z,98710.03
2022-11-24T14:40:01.911Z,98717.97
2022-11-24T14:42:33.401Z,98720.69
2022-11-24T14:45:07.208Z,98727.81
2022-11-24T14:47:39.561Z,98715.22
2022-11-24T14:50:12.299Z,98739.53
2022-11-24T14:52:50.345Z,98730.25
2022-11-24T14:55:29.414Z,98738.97
2022-11-24T14:58:03.661Z,98726.16
2022-11-24T15:00:43.882Z,98737.38
2022-11-24T15:03:20.430Z,98740.75
2022-11-24T15:05:56.703Z,98749.31
2022-11-24T15:08:26.559Z,98745.06
2022-11-24T15:11:02.270Z,98753.66
2022-11-24T15:13:35.033Z,98757.13
2022-11-24T15:16:07.807Z,98758.06
2022-11-24T15:18:44.081Z,98767.59
2022-11-24T15:21:18.939Z,98767.63
2022-11-24T15:24:07.440Z,98765.97
2022-11-24T15:26:41.982Z,98772.88
2022-11-24T15:29:11.084Z,98791.72
2022-11-24T15:31:40.357Z,98807.19
2022-11-24T15:34:15.671Z,98834.63
2022-11-24T15:36:44.292Z,98858.72
2022-11-24T15:39:13.396Z,98869.28
2022-11-24T15:41:49.851Z,98880.66
2022-11-24T15:44:18.138Z,98828.53
2022-11-24T15:46:46.444Z,98806.34
2022-11-24T15:49:20.405Z,98774.78
2022-11-24T15:51:49.728Z,98781.59
2022-11-24T15:54:20.192Z,98778.16
2022-11-24T15:56:50.007Z,98770.50
2022-11-24T15:59:20.764Z,98769.72
2022-11-24T16:01:51.135Z,98773.19
2022-11-24T16:04:19.726Z,98776.66
2022-11-24T16:06:48.211Z,98790.38
2022-11-24T16:09:19.769Z,98789.53
2022-11-24T16:11:49.325Z,98782.69
2022-11-24T16:14:17.791Z,98778.41
2022-11-24T16:16:46.770Z,98788.69
2022-11-24T16:19:20.241Z,98776.69
2022-11-24T16:21:49.432Z,98763.88
2022-11-24T16:24:24.069Z,98764.75
2022-11-24T16:27:20.260Z,98774.13
2022-11-24T16:29:49.075Z,98776.69
2022-11-24T16:32:17.398Z,98776.69
2022-11-24T16:34:45.579Z,98770.72
2022-11-24T16:37:24.005Z,98781.84
2022-11-24T16:39:52.519Z,98782.69
2022-11-24T16:42:22.554Z,98783.53
2022-11-24T16:44:52.290Z,98789.53
2022-11-24T16:47:20.471Z,98781.84
2022-11-24T16:49:49.043Z,98780.97
2022-11-24T16:52:18.675Z,98781.84
2022-11-24T16:54:47.812Z,98781.81
2022-11-24T16:57:17.494Z,98783.53
2022-11-24T16:59:47.201Z,98776.69
2022-11-24T17:02:15.584Z,98781.81
2022-11-24T17:04:43.714Z,98771.56
2022-11-24T17:07:18.582Z,98775.84
2022-11-24T17:09:51.935Z,98785.25
2022-11-24T17:12:20.233Z,98783.53
2022-11-24T17:15:16.469Z,98792.94
2022-11-24T17:17:55.119Z,98775.00
2022-11-24T17:20:27.274Z,98779.25
2022-11-24T17:22:55.734Z,98773.28
2022-11-24T17:25:24.181Z,98777.53
2022-11-24T17:27:52.895Z,98771.56
2022-11-24T17:30:25.528Z,98774.09
2022-11-24T17:32:56.758Z,98771.56
2022-11-24T17:35:28.595Z,98768.13
2022-11-24T17:37:58.351Z,98758.75
2022-11-24T17:40:30.313Z,98764.75
2022-11-24T17:43:18.631Z,98772.41
2022-11-24T17:45:55.013Z,98753.63
2022-11-24T17:48:25.246Z,98751.06
2022-11-24T17:51:14.279Z,98747.66
2022-11-24T17:54:44.908Z,98759.59
2022-11-24T17:57:32.824Z,98762.19
2022-11-24T18:03:31.788Z,98765.59
2022-11-24T18:06:21.965Z,98774.13
2022-11-24T18:08:50.619Z,98780.97
2022-11-24T18:11:37.096Z,98786.94
2022-11-24T18:14:06.379Z,98788.63
2022-11-24T18:16:36.098Z,98786.09
2022-11-24T18:19:11.342Z,98787.81
2022-11-24T18:32:59.317Z,98796.38
2022-11-24T18:39:33.611Z,98801.47
2022-11-24T18:42:30.398Z,98792.91
2022-11-24T19:09:41.512Z,98775.81
2022-11-24T19:12:17.686Z,98775.81
2022-11-24T19:15:16.733Z,98775.81
2022-11-24T19:17:47.311Z,98777.50
2022-11-24T19:20:18.646Z,98772.38
2022-11-24T19:22:51.829Z,98770.69
2022-11-24T19:25:23.440Z,98777.53
2022-11-24T19:27:59.218Z,98774.09
2022-11-24T19:30:30.474Z,98772.38
2022-11-24T19:32:58.842Z,98767.25
2022-11-24T19:35:26.884Z,98770.72
2022-11-24T19:37:58.423Z,98774.13
2022-11-24T19:40:36.683Z,98781.00
2022-11-24T19:43:08.686Z,98780.16
2022-11-24T19:45:44.344Z,98791.25
2022-11-24T19:48:34.616Z,98787.81
2022-11-24T19:51:14.542Z,98802.38
2022-11-24T19:53:43.448Z,98796.38
2022-11-24T19:56:16.644Z,98816.03
2022-11-24T19:58:50.022Z,98822.84
2022-11-24T20:02:35.156Z,98827.16
2022-11-24T20:06:09.863Z,98844.22
2022-11-24T20:08:39.145Z,98845.91
2022-11-24T20:22:57.122Z,98870.75
2022-11-24T20:26:21.870Z,98881.84
2022-11-24T20:29:09.891Z,98898.03
2022-11-24T20:31:47.751Z,98903.19
2022-11-24T20:34:24.596Z,98910.03
2022-11-24T20:39:43.775Z,98937.38
2022-11-24T20:42:36.914Z,98946.75
2022-11-24T20:45:32.606Z,98953.59
2022-11-24T20:48:50.006Z,98968.97
2022-11-24T20:51:31.721Z,98977.59
2022-11-24T20:54:23.240Z,98987.91
2022-11-24T20:57:24.244Z,98980.22
2022-11-24T20:59:59.174Z,98996.50
2022-11-24T21:02:37.006Z,99015.28
2022-11-24T21:05:07.734Z,99022.06
2022-11-24T21:07:51.463Z,99038.25
2022-11-24T21:10:29.522Z,99044.16
2022-11-24T21:13:03.384Z,99063.75
2022-11-24T21:15:51.243Z,99068.88
2022-11-24T21:18:36.047Z,99073.97
2022-11-24T21:21:09.403Z,99096.16
2022-11-24T21:23:44.521Z,99098.72
2022-11-24T21:26:24.113Z,99112.41
2022-11-24T21:28:53.820Z,99126.06
2022-11-24T21:34:06.446Z,99137.16
2022-11-24T21:36:37.204Z,99144.81
2022-11-24T21:39:12.797Z,99158.38
2022-11-24T21:41:43.580Z,99172.84
2022-11-24T21:44:14.564Z,99180.56
2022-11-24T21:46:56.118Z,99189.13
2022-11-24T21:49:24.434Z,99204.56
2022-11-24T21:51:56.119Z,99220.81
2022-11-24T21:54:25.838Z,99234.41
2022-11-24T21:56:57.047Z,99233.47
2022-11-24T21:59:29.346Z,99249.59
2022-11-24T22:01:57.605Z,99256.44
2022-11-24T22:04:26.976Z,99258.94
2022-11-24T22:07:03.462Z,99256.28
2022-11-24T22:09:45.571Z,99269.13
2022-11-24T22:12:23.075Z,99294.69
2022-11-24T22:15:19.207Z,99308.34
2022-11-24T22:17:53.859Z,99311.72
2022-11-24T22:20:24.296Z,99318.53
2022-11-24T22:22:56.266Z,99328.75
2022-11-24T22:25:31.523Z,99336.41
2022-11-24T22:27:59.620Z,99357.72
2022-11-24T22:30:38.047Z,99361.94
2022-11-24T22:33:09.183Z,99361.91
2022-11-24T22:35:38.425Z,99374.66
2022-11-24T22:38:14.047Z,99383.22
2022-11-24T22:40:47.642Z,99384.91
2022-11-24T22:43:18.899Z,99401.16
2022-11-24T22:45:50.815Z,99402.00
2022-11-24T22:48:23.375Z,99411.34
2022-11-24T22:51:05.105Z,99416.44
2022-11-24T22:53:36.216Z,99432.63
2022-11-24T22:56:09.543Z,99443.66
2022-11-24T22:58:38.615Z,99464.97
2022-11-24T23:01:07.672Z,99462.38
2022-11-24T23:03:36.903Z,99476.00
2022-11-24T23:06:16.037Z,99483.63
2022-11-24T23:08:44.513Z,99493.88
2022-11-24T23:11:15.551Z,99500.63
2022-11-24T23:13:48.797Z,99508.22
2022-11-24T23:16:19.405Z,99517.59
2022-11-24T23:19:12.967Z,99524.41
2022-11-24T23:21:44.207Z,99542.38
2022-11-24T23:24:16.965Z,99539.81
2022-11-24T23:26:46.679Z,99545.03
2022-11-24T23:29:18.863Z,99564.69
2022-11-24T23:32:02.607Z,99564.69
2022-11-24T23:34:30.723Z,99569.78
2022-11-24T23:37:00.367Z,99579.97
2022-11-24T23:39:28.690Z,99592.03
2022-11-24T23:42:07.611Z,99591.13
2022-11-24T23:44:37.521Z,99587.56
2022-11-24T23:47:05.977Z,99609.84
2022-11-24T23:49:35.791Z,99596.25
2022-11-24T23:52:05.557Z,99606.47
2022-11-24T23:54:36.727Z,99621.75
2022-11-24T23:57:14.935Z,99625.28
2022-11-24T23:59:43.217Z,99632.06
